createdAt,value
2022-09-23T00:00:35.072Z,25.70
2022-09-23T00:03:01.970Z,26.73
2022-09-23T00:05:30.541Z,28.45
2022-09-23T00:07:58.925Z,25.92
2022-09-23T00:10:27.757Z,26.40
2022-09-23T00:12:55.557Z,26.73
2022-09-23T00:15:22.490Z,25.80
2022-09-23T00:17:49.333Z,26.65
2022-09-23T00:20:16.134Z,25.48
2022-09-23T00:22:42.968Z,29.90
2022-09-23T00:25:12.011Z,24.42
2022-09-23T00:27:39.792Z,26.15
2022-09-23T00:30:09.576Z,29.27
2022-09-23T00:32:36.794Z,26.95
2022-09-23T00:35:06.683Z,25.05
2022-09-23T00:37:33.445Z,32.72
2022-09-23T00:40:00.802Z,33.65
2022-09-23T00:42:29.015Z,29.13
2022-09-23T00:44:57.445Z,31.42
2022-09-23T00:47:30.064Z,28.58
2022-09-23T00:50:03.706Z,32.22
2022-09-23T00:52:32.255Z,33.08
2022-09-23T00:55:02.750Z,31.63
2022-09-23T00:57:32.146Z,31.88
2022-09-23T00:59:59.488Z,32.53
2022-09-23T01:02:26.714Z,34.05
2022-09-23T01:04:54.665Z,30.92
2022-09-23T01:07:21.940Z,31.40
2022-09-23T01:09:50.048Z,37.38
2022-09-23T01:12:33.000Z,32.08
2022-09-23T01:15:10.931Z,29.83
2022-09-23T01:17:47.534Z,34.38
2022-09-23T01:20:38.597Z,31.02
2022-09-23T01:23:21.928Z,36.22
2022-09-23T01:26:08.216Z,31.77
2022-09-23T01:28:58.252Z,35.20
2022-09-23T01:31:37.116Z,39.45
2022-09-23T01:34:11.742Z,42.17
2022-09-23T01:36:42.959Z,33.58
2022-09-23T01:39:14.313Z,35.97
2022-09-23T01:41:51.695Z,37.33
2022-09-23T01:44:22.314Z,33.05
2022-09-23T01:46:54.627Z,34.08
2022-09-23T01:49:26.651Z,32.55
2022-09-23T01:51:59.344Z,33.38
2022-09-23T01:54:31.739Z,34.42
2022-09-23T01:57:04.397Z,35.42
2022-09-23T01:59:35.872Z,30.48
2022-09-23T02:02:09.103Z,34.15
2022-09-23T02:04:40.221Z,31.90
2022-09-23T02:07:15.287Z,31.27
2022-09-23T02:09:46.103Z,31.65
2022-09-23T02:12:20.294Z,30.98
2022-09-23T02:14:50.727Z,34.20
2022-09-23T02:17:25.071Z,30.55
2022-09-23T02:19:57.055Z,32.92
2022-09-23T02:22:28.901Z,34.33
2022-09-23T02:24:56.642Z,29.95
2022-09-23T02:27:29.687Z,34.40
2022-09-23T02:30:03.610Z,35.42
2022-09-23T02:32:36.349Z,35.05
2022-09-23T02:35:15.658Z,34.90
2022-09-23T02:37:46.953Z,33.80
2022-09-23T02:40:19.238Z,35.33
2022-09-23T02:42:57.011Z,34.63
2022-09-23T02:45:24.120Z,36.28
2022-09-23T02:47:57.213Z,39.13
2022-09-23T02:50:24.311Z,37.70
2022-09-23T02:52:51.551Z,37.53
2022-09-23T02:55:23.645Z,34.63
2022-09-23T02:57:50.742Z,41.80
2022-09-23T03:00:17.892Z,40.28
2022-09-23T03:03:19.419Z,34.13
2022-09-23T03:05:53.056Z,39.63
2022-09-23T03:08:32.504Z,39.13
2022-09-23T03:11:05.307Z,42.20
2022-09-23T03:13:42.657Z,44.17
2022-09-23T03:16:17.012Z,42.65
2022-09-23T03:18:51.428Z,37.63
2022-09-23T03:21:25.235Z,34.35
2022-09-23T03:23:54.443Z,30.77
2022-09-23T03:26:25.598Z,33.67
2022-09-23T03:28:53.061Z,28.83
2022-09-23T03:31:20.371Z,31.25
2022-09-23T03:33:52.675Z,29.30
2022-09-23T03:36:44.509Z,26.42
2022-09-23T03:39:17.796Z,27.70
2022-09-23T03:41:50.968Z,26.83
2022-09-23T03:44:18.330Z,30.05
2022-09-23T03:46:50.021Z,29.70
2022-09-23T03:49:24.345Z,30.50
2022-09-23T03:51:51.128Z,26.77
2022-09-23T03:54:19.706Z,30.30
2022-09-23T03:56:49.825Z,24.25
2022-09-23T03:59:16.885Z,25.73
2022-09-23T04:01:44.158Z,29.40
2022-09-23T04:04:10.967Z,35.08
2022-09-23T04:06:39.026Z,25.48
2022-09-23T04:09:06.037Z,28.73
2022-09-23T04:11:32.788Z,23.30
2022-09-23T04:13:59.544Z,23.50
2022-09-23T04:16:26.617Z,25.80
2022-09-23T04:18:53.569Z,26.40
2022-09-23T04:21:20.408Z,25.15
2022-09-23T04:23:48.777Z,22.83
2022-09-23T04:26:15.592Z,21.50
2022-09-23T04:28:42.603Z,27.13
2022-09-23T04:31:10.008Z,23.70
2022-09-23T04:33:37.695Z,19.27
2022-09-23T04:36:04.944Z,22.85
2022-09-23T04:38:31.870Z,20.60
2022-09-23T04:40:59.988Z,19.83
2022-09-23T04:43:26.945Z,24.92
2022-09-23T04:46:00.693Z,22.05
2022-09-23T04:48:28.002Z,20.65
2022-09-23T04:50:55.290Z,20.45
2022-09-23T04:53:22.607Z,20.23
2022-09-23T04:55:50.303Z,19.08
2022-09-23T04:58:18.390Z,18.60
2022-09-23T05:00:45.224Z,19.90
2022-09-23T05:03:13.764Z,19.58
2022-09-23T05:05:40.567Z,18.60
2022-09-23T05:08:07.299Z,18.95
2022-09-23T05:10:34.116Z,15.23
2022-09-23T05:13:01.200Z,21.40
2022-09-23T05:15:29.347Z,17.83
2022-09-23T05:17:57.633Z,17.50
2022-09-23T05:20:24.423Z,20.13
2022-09-23T05:22:55.768Z,18.70
2022-09-23T05:25:23.900Z,19.52
2022-09-23T05:27:50.683Z,19.42
2022-09-23T05:30:17.662Z,20.48
2022-09-23T05:32:45.876Z,17.30
2022-09-23T05:35:12.830Z,17.85
2022-09-23T05:37:39.604Z,19.02
2022-09-23T05:40:06.758Z,17.85
2022-09-23T05:42:33.775Z,18.63
2022-09-23T05:45:00.547Z,18.77
2022-09-23T05:47:27.292Z,16.63
2022-09-23T05:49:59.920Z,18.67
2022-09-23T05:52:27.250Z,19.90
2022-09-23T05:54:54.252Z,22.10
2022-09-23T05:57:21.582Z,20.10
2022-09-23T05:59:48.552Z,15.73
2022-09-23T06:02:15.465Z,19.90
2022-09-23T06:04:43.134Z,16.70
2022-09-23T06:07:11.503Z,18.42
2022-09-23T06:09:38.330Z,17.60
2022-09-23T06:12:06.425Z,17.10
2022-09-23T06:14:33.269Z,17.17
2022-09-23T06:17:00.030Z,16.55
2022-09-23T06:19:26.853Z,16.00
2022-09-23T06:21:53.682Z,15.13
2022-09-23T06:24:26.001Z,16.38
2022-09-23T06:26:55.871Z,15.80
2022-09-23T06:29:22.602Z,21.77
2022-09-23T06:31:49.829Z,16.00
2022-09-23T06:34:16.882Z,18.73
2022-09-23T06:36:46.178Z,18.40
2022-09-23T06:44:12.404Z,20.00
2022-09-23T06:46:39.205Z,20.73
2022-09-23T06:49:05.985Z,18.77
2022-09-23T06:51:32.697Z,23.25
2022-09-23T06:53:59.456Z,17.85
2022-09-23T06:56:26.286Z,19.95
2022-09-23T06:58:54.871Z,17.67
2022-09-23T07:01:22.386Z,22.83
2022-09-23T07:03:49.246Z,19.73
2022-09-23T07:06:16.285Z,19.65
2022-09-23T07:08:44.920Z,19.05
2022-09-23T07:11:13.393Z,18.45
2022-09-23T07:13:41.569Z,20.83
2022-09-23T07:16:11.140Z,21.02
2022-09-23T07:18:38.293Z,21.00
2022-09-23T07:21:08.504Z,21.75
2022-09-23T07:23:35.603Z,20.88
2022-09-23T07:26:04.060Z,21.00
2022-09-23T07:28:30.944Z,21.42
2022-09-23T07:31:02.033Z,19.42
2022-09-23T07:33:33.299Z,22.42
2022-09-23T07:36:05.011Z,21.80
2022-09-23T07:38:31.957Z,22.90
2022-09-23T07:41:03.255Z,21.98
2022-09-23T07:43:32.597Z,23.55
2022-09-23T07:46:00.746Z,21.73
2022-09-23T07:48:30.740Z,22.42
2022-09-23T07:51:07.307Z,24.35
2022-09-23T07:53:34.156Z,23.20
2022-09-23T07:56:01.138Z,23.65
2022-09-23T07:58:27.950Z,22.40
2022-09-23T08:00:54.695Z,21.85
2022-09-23T08:03:21.668Z,24.98
2022-09-23T08:05:48.532Z,26.00
2022-09-23T08:08:17.351Z,27.25
2022-09-23T08:10:44.224Z,22.23
2022-09-23T08:13:11.392Z,29.83
2022-09-23T08:15:38.599Z,25.65
2022-09-23T08:18:05.617Z,22.55
2022-09-23T08:20:48.140Z,23.35
2022-09-23T08:23:17.117Z,27.20
2022-09-23T08:25:47.106Z,25.10
2022-09-23T08:28:16.617Z,28.48
2022-09-23T08:30:43.869Z,27.27
2022-09-23T08:33:11.196Z,28.88
2022-09-23T08:35:38.339Z,24.73
2022-09-23T08:38:05.089Z,27.65
2022-09-23T08:40:36.480Z,24.30
2022-09-23T08:43:06.993Z,29.05
2022-09-23T08:45:36.848Z,25.33
2022-09-23T08:48:13.006Z,27.90
2022-09-23T08:50:45.415Z,29.38
2022-09-23T08:53:25.095Z,33.22
2022-09-23T08:55:55.697Z,28.92
2022-09-23T08:58:41.107Z,33.63
2022-09-23T09:01:18.542Z,34.40
2022-09-23T09:03:49.570Z,29.75
2022-09-23T09:06:23.153Z,29.83
2022-09-23T09:08:55.360Z,32.92
2022-09-23T09:11:31.379Z,31.45
2022-09-23T09:14:05.946Z,40.25
2022-09-23T09:17:01.701Z,32.28
2022-09-23T09:19:54.079Z,29.77
2022-09-23T09:22:27.260Z,34.08
2022-09-23T09:25:01.020Z,29.65
2022-09-23T09:27:29.410Z,30.30
2022-09-23T09:30:01.324Z,28.30
2022-09-23T09:32:38.476Z,33.92
2022-09-23T09:35:13.008Z,34.95
2022-09-23T09:37:46.969Z,28.88
2022-09-23T09:40:17.220Z,32.20
2022-09-23T09:42:48.816Z,29.88
2022-09-23T09:45:26.371Z,30.02
2022-09-23T09:48:03.587Z,30.55
2022-09-23T09:50:45.664Z,28.52
2022-09-23T09:53:23.925Z,36.53
2022-09-23T09:56:04.575Z,28.95
2022-09-23T09:58:43.826Z,31.38
2022-09-23T10:01:19.529Z,28.02
2022-09-23T10:03:46.858Z,29.45
2022-09-23T10:06:16.567Z,30.63
2022-09-23T10:08:48.726Z,30.80
2022-09-23T10:11:17.633Z,28.38
2022-09-23T10:14:04.934Z,27.35
2022-09-23T10:16:34.475Z,28.10
2022-09-23T10:19:03.352Z,33.05
2022-09-23T10:21:35.534Z,30.58
2022-09-23T10:24:05.654Z,28.30
2022-09-23T10:26:38.902Z,30.00
2022-09-23T10:29:22.982Z,25.10
2022-09-23T10:31:53.424Z,23.40
2022-09-23T10:34:25.048Z,26.13
2022-09-23T10:36:55.571Z,25.40
2022-09-23T10:39:40.881Z,25.67
2022-09-23T10:42:37.185Z,24.85
2022-09-23T10:45:38.594Z,31.30
2022-09-23T10:48:15.891Z,25.83
2022-09-23T10:50:48.707Z,26.15
2022-09-23T10:53:22.935Z,29.30
2022-09-23T10:56:03.220Z,32.67
2022-09-23T10:58:58.952Z,31.63
2022-09-23T11:01:40.655Z,33.67
2022-09-23T11:04:32.368Z,27.60
2022-09-23T11:07:11.695Z,26.50
2022-09-23T11:09:53.160Z,28.42
2022-09-23T11:12:35.710Z,28.77
2022-09-23T11:15:27.655Z,25.92
2022-09-23T11:18:22.897Z,24.40
2022-09-23T11:20:57.240Z,31.00
2022-09-23T11:23:55.858Z,25.30
2022-09-23T11:26:36.744Z,24.48
2022-09-23T11:29:14.135Z,24.92
2022-09-23T11:31:49.563Z,27.17
2022-09-23T11:34:38.847Z,26.83
2022-09-23T11:37:09.958Z,24.50
2022-09-23T11:39:42.296Z,27.63
2022-09-23T11:42:17.896Z,26.45
2022-09-23T11:44:50.127Z,24.38
2022-09-23T11:47:22.533Z,25.77
2022-09-23T11:49:56.214Z,29.40
2022-09-23T11:52:28.772Z,26.13
2022-09-23T11:55:01.201Z,23.90
2022-09-23T11:57:45.542Z,21.23
2022-09-23T12:00:19.296Z,23.48
2022-09-23T12:03:05.496Z,23.85
2022-09-23T12:05:39.967Z,25.95
2022-09-23T12:08:14.080Z,23.77
2022-09-23T12:10:51.791Z,29.23
2022-09-23T12:13:23.796Z,23.65
2022-09-23T12:16:16.168Z,24.20
2022-09-23T12:18:53.126Z,24.52
2022-09-23T12:21:53.321Z,22.38
2022-09-23T12:24:34.332Z,21.67
2022-09-23T12:27:06.985Z,22.65
2022-09-23T12:29:35.700Z,20.67
2022-09-23T12:32:07.489Z,20.88
2022-09-23T12:34:40.545Z,21.33
2022-09-23T12:37:08.958Z,20.15
2022-09-23T12:39:38.859Z,21.20
2022-09-23T12:42:12.506Z,22.88
2022-09-23T12:44:41.880Z,21.02
2022-09-23T12:49:56.698Z,22.23
2022-09-23T12:52:28.674Z,23.15
2022-09-23T12:54:57.125Z,18.08
2022-09-23T12:57:42.747Z,24.65
2022-09-23T13:00:23.762Z,20.13
2022-09-23T13:03:14.040Z,20.15
2022-09-23T13:06:04.430Z,20.55
2022-09-23T13:08:36.002Z,24.17
2022-09-23T13:11:05.911Z,23.25
2022-09-23T13:13:36.476Z,18.52
2022-09-23T13:16:12.271Z,24.90
2022-09-23T13:18:57.904Z,21.55
2022-09-23T13:22:09.798Z,23.95
2022-09-23T13:24:41.477Z,19.35
2022-09-23T13:27:26.862Z,23.67
2022-09-23T13:29:59.260Z,18.45
2022-09-23T13:32:31.878Z,19.75
2022-09-23T13:35:01.608Z,22.67
2022-09-23T13:37:40.409Z,20.35
2022-09-23T13:40:16.621Z,20.00
2022-09-23T13:42:47.464Z,22.83
2022-09-23T13:45:17.032Z,19.48
2022-09-23T13:47:45.555Z,19.90
2022-09-23T13:50:18.269Z,19.58
2022-09-23T13:52:45.691Z,24.35
2022-09-23T13:55:32.381Z,21.38
2022-09-23T13:58:02.366Z,19.17
2022-09-23T14:00:35.578Z,19.52
2022-09-23T14:03:03.324Z,24.80
2022-09-23T14:05:34.793Z,23.55
2022-09-23T14:08:03.279Z,20.33
2022-09-23T14:10:31.465Z,22.05
2022-09-23T14:12:59.460Z,22.05
2022-09-23T14:15:26.685Z,23.23
2022-09-23T14:17:59.117Z,20.17
2022-09-23T14:20:26.056Z,25.77
2022-09-23T14:23:07.716Z,19.77
2022-09-23T14:25:36.300Z,25.25
2022-09-23T14:28:04.121Z,31.30
2022-09-23T14:30:31.520Z,21.75
2022-09-23T14:32:59.243Z,24.65
2022-09-23T14:35:38.342Z,22.48
2022-09-23T14:38:24.187Z,23.65
2022-09-23T14:41:14.371Z,23.52
2022-09-23T14:43:47.567Z,21.42
2022-09-23T14:46:18.271Z,21.25
2022-09-23T14:48:54.301Z,27.02
2022-09-23T14:51:22.738Z,29.02
2022-09-23T14:53:49.630Z,22.83
2022-09-23T14:56:20.439Z,27.00
2022-09-23T14:58:52.700Z,22.80
2022-09-23T15:01:40.800Z,23.92
2022-09-23T15:04:27.903Z,19.48
2022-09-23T15:06:57.042Z,26.48
2022-09-23T15:09:27.317Z,21.83
2022-09-23T15:12:00.681Z,20.52
2022-09-23T15:14:38.855Z,27.35
2022-09-23T15:17:16.869Z,21.40
2022-09-23T15:19:44.215Z,24.38
2022-09-23T15:22:11.344Z,29.08
2022-09-23T15:24:42.308Z,25.42
2022-09-23T15:27:27.585Z,22.77
2022-09-23T15:29:56.322Z,26.60
2022-09-23T15:32:23.440Z,29.70
2022-09-23T15:34:50.995Z,28.25
2022-09-23T15:37:17.858Z,26.33
2022-09-23T15:39:44.753Z,32.22
2022-09-23T15:42:11.902Z,32.40
2022-09-23T15:44:40.248Z,35.35
2022-09-23T15:47:15.445Z,34.00
2022-09-23T15:49:47.272Z,36.90
2022-09-23T15:52:16.065Z,36.08
2022-09-23T15:54:43.854Z,34.70
2022-09-23T15:57:11.322Z,40.67
2022-09-23T15:59:38.230Z,35.55
2022-09-23T16:02:18.159Z,41.13
2022-09-23T16:04:51.007Z,39.03
2022-09-23T16:07:19.753Z,37.53
2022-09-23T16:09:46.674Z,38.58
2022-09-23T16:12:13.796Z,39.90
2022-09-23T16:14:40.512Z,39.38
2022-09-23T16:17:13.447Z,35.58
2022-09-23T16:19:40.227Z,41.40
2022-09-23T16:22:07.290Z,44.20
2022-09-23T16:24:34.153Z,41.08
2022-09-23T16:27:05.259Z,39.75
2022-09-23T16:29:32.106Z,41.33
2022-09-23T16:32:00.990Z,42.80
2022-09-23T16:34:29.980Z,46.90
2022-09-23T16:36:56.822Z,42.30
2022-09-23T16:39:24.019Z,41.83
2022-09-23T16:41:50.832Z,45.53
2022-09-23T16:44:17.571Z,44.97
2022-09-23T16:46:44.444Z,48.45
2022-09-23T16:49:14.235Z,45.80
2022-09-23T16:51:42.475Z,54.50
2022-09-23T16:54:11.372Z,55.80
2022-09-23T16:56:44.027Z,48.60
2022-09-23T16:59:10.960Z,54.30
2022-09-23T17:01:56.401Z,48.90
2022-09-23T17:04:23.219Z,47.88
2022-09-23T17:06:53.020Z,50.90
2022-09-23T17:09:21.169Z,49.10
2022-09-23T17:11:58.909Z,45.00
2022-09-23T17:14:25.880Z,48.78
2022-09-23T17:16:52.662Z,50.20
2022-09-23T17:19:19.402Z,54.40
2022-09-23T17:21:46.549Z,53.55
2022-09-23T17:24:14.787Z,52.78
2022-09-23T17:26:41.850Z,45.45
2022-09-23T17:29:09.854Z,52.45
2022-09-23T17:31:37.040Z,49.70
2022-09-23T17:34:03.751Z,43.30
2022-09-23T17:36:30.839Z,50.25
2022-09-23T17:38:57.641Z,48.30
2022-09-23T17:41:25.995Z,54.08
2022-09-23T17:44:00.757Z,53.28
2022-09-23T17:46:30.215Z,54.72
2022-09-23T17:51:25.311Z,54.83
2022-09-23T17:53:52.159Z,55.15
2022-09-23T17:56:20.237Z,59.88
2022-09-23T17:58:49.811Z,57.88
2022-09-23T18:01:19.144Z,62.13
2022-09-23T18:03:47.394Z,56.83
2022-09-23T18:06:16.101Z,55.30
2022-09-23T18:08:44.092Z,62.00
2022-09-23T18:11:15.980Z,59.75
2022-09-23T18:13:46.685Z,56.35
2022-09-23T18:16:15.064Z,53.95
2022-09-23T18:18:43.014Z,47.47
2022-09-23T18:21:10.469Z,55.10
2022-09-23T18:23:37.762Z,56.35
2022-09-23T18:26:04.905Z,51.10
2022-09-23T18:28:34.880Z,48.67
2022-09-23T18:31:01.934Z,53.03
2022-09-23T18:33:30.032Z,54.92
2022-09-23T18:35:59.165Z,47.40
2022-09-23T18:38:25.895Z,40.13
2022-09-23T18:40:56.873Z,40.70
2022-09-23T18:43:25.810Z,39.53
2022-09-23T18:45:57.432Z,39.47
2022-09-23T18:48:43.143Z,41.78
2022-09-23T18:51:13.190Z,44.90
2022-09-23T18:53:41.295Z,43.40
2022-09-23T18:56:09.403Z,43.42
2022-09-23T18:58:36.321Z,39.50
2022-09-23T19:01:06.156Z,42.00
2022-09-23T19:03:33.128Z,40.63
2022-09-23T19:06:05.427Z,38.15
2022-09-23T19:08:34.439Z,38.20
2022-09-23T19:11:03.606Z,36.72
2022-09-23T19:13:30.697Z,34.05
2022-09-23T19:16:02.132Z,34.25
2022-09-23T19:18:29.958Z,34.95
2022-09-23T19:21:02.549Z,33.13
2022-09-23T19:23:37.567Z,34.47
2022-09-23T19:26:06.588Z,34.33
2022-09-23T19:28:33.667Z,35.60
2022-09-23T19:31:09.904Z,36.65
2022-09-23T19:33:37.802Z,40.88
2022-09-23T19:36:04.966Z,42.63
2022-09-23T19:38:31.703Z,44.05
2022-09-23T19:41:03.158Z,37.92
2022-09-23T19:43:29.842Z,40.22
2022-09-23T19:45:56.690Z,34.08
2022-09-23T19:48:23.429Z,36.17
2022-09-23T19:50:50.401Z,34.35
2022-09-23T19:53:17.336Z,35.83
2022-09-23T19:55:44.379Z,34.70
2022-09-23T19:58:14.324Z,31.83
2022-09-23T20:00:41.344Z,30.27
2022-09-23T20:03:09.034Z,31.17
2022-09-23T20:05:36.072Z,28.30
2022-09-23T20:08:05.173Z,31.00
2022-09-23T20:10:32.398Z,26.42
2022-09-23T20:12:59.710Z,27.55
2022-09-23T20:15:29.087Z,30.90
2022-09-23T20:17:56.612Z,24.83
2022-09-23T20:20:23.364Z,25.95
2022-09-23T20:22:52.151Z,25.33
2022-09-23T20:25:18.961Z,24.75
2022-09-23T20:27:49.552Z,30.63
2022-09-23T20:30:17.073Z,22.65
2022-09-23T20:32:45.328Z,20.77
2022-09-23T20:35:12.399Z,22.50
2022-09-23T20:37:39.175Z,21.13
2022-09-23T20:40:07.012Z,21.17
2022-09-23T20:42:33.971Z,23.92
2022-09-23T20:45:00.839Z,24.30
2022-09-23T20:47:27.598Z,24.35
2022-09-23T20:49:56.154Z,24.70
2022-09-23T20:52:22.915Z,21.52
2022-09-23T20:54:51.618Z,23.42
2022-09-23T20:57:20.316Z,23.95
2022-09-23T20:59:47.897Z,31.05
2022-09-23T21:02:15.366Z,26.27
2022-09-23T21:04:42.385Z,26.45
2022-09-23T21:07:10.643Z,27.65
2022-09-23T21:09:37.511Z,34.40
2022-09-23T21:12:04.556Z,29.10
2022-09-23T21:14:31.448Z,31.13
2022-09-23T21:16:59.300Z,40.72
2022-09-23T21:19:28.007Z,31.05
2022-09-23T21:21:55.130Z,29.73
2022-09-23T21:27:10.194Z,27.20
2022-09-23T21:29:37.932Z,27.00
2022-09-23T21:32:04.993Z,30.00
2022-09-23T21:34:32.146Z,29.42
2022-09-23T21:36:58.948Z,28.90
2022-09-23T21:39:27.070Z,28.88
2022-09-23T21:41:54.209Z,30.52
2022-09-23T21:44:21.042Z,36.15
2022-09-23T21:46:47.810Z,35.15
2022-09-23T21:49:15.531Z,36.20
2022-09-23T21:51:42.357Z,45.03
2022-09-23T21:54:12.623Z,48.03
2022-09-23T21:56:40.814Z,42.72
2022-09-23T21:59:08.147Z,48.15
2022-09-23T22:01:36.599Z,44.83
2022-09-23T22:04:08.777Z,53.92
2022-09-23T22:06:38.196Z,56.58
2022-09-23T22:09:10.952Z,48.45
2022-09-23T22:12:00.045Z,56.88
2022-09-23T22:14:27.260Z,55.45
2022-09-23T22:16:59.195Z,51.72
2022-09-23T22:19:28.120Z,58.80
2022-09-23T22:21:56.220Z,48.38
2022-09-23T22:24:23.226Z,47.00
2022-09-23T22:26:51.473Z,45.55
2022-09-23T22:29:36.689Z,55.13
2022-09-23T22:32:23.886Z,43.28
2022-09-23T22:34:52.121Z,44.88
2022-09-23T22:37:21.195Z,46.55
2022-09-23T22:39:47.962Z,46.85
2022-09-23T22:42:16.328Z,48.35
2022-09-23T22:44:43.131Z,43.58
2022-09-23T22:47:10.577Z,45.13
2022-09-23T22:49:37.482Z,45.15
2022-09-23T22:52:07.986Z,51.53
2022-09-23T22:54:35.607Z,44.10
2022-09-23T22:57:05.232Z,49.15
2022-09-23T22:59:33.777Z,43.70
2022-09-23T23:02:02.439Z,42.15
2022-09-23T23:04:29.945Z,40.90
2022-09-23T23:06:57.206Z,45.70
2022-09-23T23:09:24.060Z,43.47
2022-09-23T23:11:51.157Z,44.90
2022-09-23T23:14:18.547Z,43.67
2022-09-23T23:16:47.104Z,46.20
2022-09-23T23:19:17.239Z,43.30
2022-09-23T23:21:45.417Z,47.40
2022-09-23T23:24:15.537Z,44.08
2022-09-23T23:26:42.629Z,46.05
2022-09-23T23:29:11.512Z,48.55
2022-09-23T23:31:39.112Z,44.55
2022-09-23T23:34:11.100Z,49.67
2022-09-23T23:36:38.548Z,43.75
2022-09-23T23:39:05.516Z,44.05
2022-09-23T23:41:32.295Z,38.88
2022-09-23T23:44:01.039Z,42.17
2022-09-23T23:46:30.393Z,39.83
2022-09-23T23:48:58.178Z,42.20
2022-09-23T23:51:27.638Z,38.40
2022-09-23T23:56:24.633Z,31.75
2022-09-23T23:58:54.148Z,40.75
